sim
Sign-in with your pilot id or email,
or register
Callsign
Passwort

Schedule Details

Flight Number: DLH2304 (1)
Departure: Munich Airport (EDDM) at 11:20
Arrival: Amsterdam Schiphol Airport (EHAM) at 12:55
Route: Lufthansa Passenger Schedule. Enter filed route here before submitting Pirep.

Weather Information
Getting current METAR information for EDDM 280720Z VRB02KT 9999 -RA FEW025 SCT045 06/05 Q1010 NOSIG
Getting current METAR information for EHAM 280725Z VRB02KT 2000 0500E R18C/P2000N R27/0900D R18R/P2000N R06/1800N BR FEW001 SCT002 BKN003 14/14 Q1007 TEMPO 1400 SCT001 BKN002

Schedule Frequency

Route Map